sensor_id;sensor_type;location;lat;lon;timestamp;P1;durP1;ratioP1;P2;durP2;ratioP2
72437;SDS011;60444;43.534;-5.674;2022-07-18T00:00:46;29.73;;;19.63;;
72437;SDS011;60444;43.534;-5.674;2022-07-18T00:03:12;29.17;;;19.63;;
72437;SDS011;60444;43.534;-5.674;2022-07-18T00:05:38;28.90;;;19.73;;
72437;SDS011;60444;43.534;-5.674;2022-07-18T00:08:04;31.53;;;20.40;;
72437;SDS011;60444;43.534;-5.674;2022-07-18T00:10:29;31.95;;;19.05;;
72437;SDS011;60444;43.534;-5.674;2022-07-18T00:12:55;27.57;;;18.67;;
72437;SDS011;60444;43.534;-5.674;2022-07-18T00:15:20;29.17;;;19.00;;
72437;SDS011;60444;43.534;-5.674;2022-07-18T00:17:46;30.77;;;20.07;;
72437;SDS011;60444;43.534;-5.674;2022-07-18T00:20:12;35.83;;;19.90;;
72437;SDS011;60444;43.534;-5.674;2022-07-18T00:22:37;27.10;;;18.23;;
72437;SDS011;60444;43.534;-5.674;2022-07-18T00:25:03;29.40;;;19.48;;
72437;SDS011;60444;43.534;-5.674;2022-07-18T00:27:29;28.37;;;18.87;;
72437;SDS011;60444;43.534;-5.674;2022-07-18T00:29:55;30.05;;;19.30;;
72437;SDS011;60444;43.534;-5.674;2022-07-18T00:32:20;31.50;;;19.23;;
72437;SDS011;60444;43.534;-5.674;2022-07-18T00:34:49;28.95;;;19.20;;
72437;SDS011;60444;43.534;-5.674;2022-07-18T00:37:14;28.80;;;19.10;;
72437;SDS011;60444;43.534;-5.674;2022-07-18T00:39:42;27.20;;;19.63;;
72437;SDS011;60444;43.534;-5.674;2022-07-18T00:42:12;26.25;;;17.65;;
72437;SDS011;60444;43.534;-5.674;2022-07-18T00:44:37;26.03;;;18.60;;
72437;SDS011;60444;43.534;-5.674;2022-07-18T00:47:03;26.40;;;17.23;;
72437;SDS011;60444;43.534;-5.674;2022-07-18T00:49:31;23.25;;;17.15;;
72437;SDS011;60444;43.534;-5.674;2022-07-18T00:51:57;24.93;;;18.57;;
72437;SDS011;60444;43.534;-5.674;2022-07-18T00:54:23;26.83;;;18.80;;
72437;SDS011;60444;43.534;-5.674;2022-07-18T00:56:49;26.70;;;17.33;;
72437;SDS011;60444;43.534;-5.674;2022-07-18T00:59:18;28.30;;;18.23;;
72437;SDS011;60444;43.534;-5.674;2022-07-18T01:01:44;26.55;;;18.20;;
72437;SDS011;60444;43.534;-5.674;2022-07-18T01:04:20;25.75;;;16.95;;
72437;SDS011;60444;43.534;-5.674;2022-07-18T01:06:50;28.83;;;19.48;;
72437;SDS011;60444;43.534;-5.674;2022-07-18T01:09:16;26.40;;;17.90;;
72437;SDS011;60444;43.534;-5.674;2022-07-18T01:11:48;24.38;;;17.25;;
72437;SDS011;60444;43.534;-5.674;2022-07-18T01:14:13;24.65;;;18.33;;
72437;SDS011;60444;43.534;-5.674;2022-07-18T01:16:40;30.23;;;19.35;;
72437;SDS011;60444;43.534;-5.674;2022-07-18T01:19:06;24.57;;;17.87;;
72437;SDS011;60444;43.534;-5.674;2022-07-18T01:21:31;27.40;;;18.20;;
72437;SDS011;60444;43.534;-5.674;2022-07-18T01:23:57;26.77;;;18.63;;
72437;SDS011;60444;43.534;-5.674;2022-07-18T01:26:23;25.20;;;18.00;;
72437;SDS011;60444;43.534;-5.674;2022-07-18T01:28:49;25.20;;;17.47;;
72437;SDS011;60444;43.534;-5.674;2022-07-18T01:31:14;24.77;;;17.42;;
72437;SDS011;60444;43.534;-5.674;2022-07-18T01:33:43;23.53;;;17.43;;
72437;SDS011;60444;43.534;-5.674;2022-07-18T01:36:08;24.40;;;17.02;;
72437;SDS011;60444;43.534;-5.674;2022-07-18T01:38:34;24.97;;;17.30;;
72437;SDS011;60444;43.534;-5.674;2022-07-18T01:41:00;25.35;;;17.80;;
72437;SDS011;60444;43.534;-5.674;2022-07-18T01:43:27;25.23;;;18.65;;
72437;SDS011;60444;43.534;-5.674;2022-07-18T01:45:53;25.88;;;17.35;;
72437;SDS011;60444;43.534;-5.674;2022-07-18T01:48:19;26.75;;;18.40;;
72437;SDS011;60444;43.534;-5.674;2022-07-18T01:50:47;25.97;;;18.47;;
72437;SDS011;60444;43.534;-5.674;2022-07-18T01:53:13;26.40;;;18.02;;
72437;SDS011;60444;43.534;-5.674;2022-07-18T01:55:38;31.00;;;19.70;;
72437;SDS011;60444;43.534;-5.674;2022-07-18T01:58:04;28.50;;;19.70;;
72437;SDS011;60444;43.534;-5.674;2022-07-18T02:00:31;26.35;;;18.92;;
72437;SDS011;60444;43.534;-5.674;2022-07-18T02:02:57;28.03;;;19.17;;
72437;SDS011;60444;43.534;-5.674;2022-07-18T02:05:23;24.70;;;18.02;;
72437;SDS011;60444;43.534;-5.674;2022-07-18T02:07:51;24.00;;;17.77;;
72437;SDS011;60444;43.534;-5.674;2022-07-18T02:10:18;30.37;;;20.13;;
72437;SDS011;60444;43.534;-5.674;2022-07-18T02:12:45;25.13;;;19.13;;
72437;SDS011;60444;43.534;-5.674;2022-07-18T02:15:12;27.77;;;18.48;;
72437;SDS011;60444;43.534;-5.674;2022-07-18T02:17:39;27.98;;;19.08;;
72437;SDS011;60444;43.534;-5.674;2022-07-18T02:20:05;24.80;;;18.43;;
72437;SDS011;60444;43.534;-5.674;2022-07-18T02:22:36;28.90;;;19.30;;
72437;SDS011;60444;43.534;-5.674;2022-07-18T02:25:02;27.67;;;18.73;;
72437;SDS011;60444;43.534;-5.674;2022-07-18T02:27:28;24.98;;;18.55;;
72437;SDS011;60444;43.534;-5.674;2022-07-18T02:29:57;27.13;;;19.07;;
72437;SDS011;60444;43.534;-5.674;2022-07-18T02:32:25;31.17;;;20.10;;
72437;SDS011;60444;43.534;-5.674;2022-07-18T02:34:51;29.70;;;20.55;;
72437;SDS011;60444;43.534;-5.674;2022-07-18T02:37:19;26.13;;;19.33;;
72437;SDS011;60444;43.534;-5.674;2022-07-18T02:39:45;30.98;;;22.00;;
72437;SDS011;60444;43.534;-5.674;2022-07-18T02:42:10;35.47;;;22.13;;
72437;SDS011;60444;43.534;-5.674;2022-07-18T02:44:36;30.63;;;20.05;;
72437;SDS011;60444;43.534;-5.674;2022-07-18T02:47:02;26.00;;;18.87;;
72437;SDS011;60444;43.534;-5.674;2022-07-18T02:49:28;27.95;;;20.35;;
72437;SDS011;60444;43.534;-5.674;2022-07-18T02:52:01;29.10;;;20.57;;
72437;SDS011;60444;43.534;-5.674;2022-07-18T02:54:30;27.55;;;21.52;;
72437;SDS011;60444;43.534;-5.674;2022-07-18T02:56:56;28.23;;;19.58;;
72437;SDS011;60444;43.534;-5.674;2022-07-18T02:59:27;25.35;;;18.42;;
72437;SDS011;60444;43.534;-5.674;2022-07-18T03:01:56;27.80;;;20.27;;
72437;SDS011;60444;43.534;-5.674;2022-07-18T03:04:22;28.40;;;20.53;;
72437;SDS011;60444;43.534;-5.674;2022-07-18T03:06:50;31.10;;;20.05;;
72437;SDS011;60444;43.534;-5.674;2022-07-18T03:09:16;29.65;;;20.40;;
72437;SDS011;60444;43.534;-5.674;2022-07-18T03:11:43;25.17;;;18.83;;
72437;SDS011;60444;43.534;-5.674;2022-07-18T03:14:09;27.97;;;19.03;;
72437;SDS011;60444;43.534;-5.674;2022-07-18T03:16:35;28.77;;;19.20;;
72437;SDS011;60444;43.534;-5.674;2022-07-18T03:19:00;29.55;;;18.98;;
72437;SDS011;60444;43.534;-5.674;2022-07-18T03:21:26;25.83;;;18.50;;
72437;SDS011;60444;43.534;-5.674;2022-07-18T03:23:53;27.45;;;18.85;;
72437;SDS011;60444;43.534;-5.674;2022-07-18T03:26:18;26.23;;;18.97;;
72437;SDS011;60444;43.534;-5.674;2022-07-18T03:28:44;27.40;;;19.00;;
72437;SDS011;60444;43.534;-5.674;2022-07-18T03:31:12;25.20;;;19.10;;
72437;SDS011;60444;43.534;-5.674;2022-07-18T03:33:41;25.60;;;18.40;;
72437;SDS011;60444;43.534;-5.674;2022-07-18T03:36:09;25.15;;;18.83;;
72437;SDS011;60444;43.534;-5.674;2022-07-18T03:38:35;25.37;;;18.20;;
72437;SDS011;60444;43.534;-5.674;2022-07-18T03:41:08;26.13;;;18.77;;
72437;SDS011;60444;43.534;-5.674;2022-07-18T03:43:35;26.73;;;18.50;;
72437;SDS011;60444;43.534;-5.674;2022-07-18T03:46:01;27.30;;;19.33;;
72437;SDS011;60444;43.534;-5.674;2022-07-18T03:48:27;26.80;;;19.73;;
72437;SDS011;60444;43.534;-5.674;2022-07-18T03:50:53;24.48;;;17.85;;
72437;SDS011;60444;43.534;-5.674;2022-07-18T03:53:21;29.07;;;20.30;;
72437;SDS011;60444;43.534;-5.674;2022-07-18T03:55:47;28.05;;;19.13;;
72437;SDS011;60444;43.534;-5.674;2022-07-18T03:58:13;27.50;;;20.47;;
72437;SDS011;60444;43.534;-5.674;2022-07-18T04:00:38;27.08;;;19.50;;
72437;SDS011;60444;43.534;-5.674;2022-07-18T04:03:04;23.70;;;18.10;;
72437;SDS011;60444;43.534;-5.674;2022-07-18T04:05:30;26.48;;;18.88;;
72437;SDS011;60444;43.534;-5.674;2022-07-18T04:07:55;24.50;;;18.60;;
72437;SDS011;60444;43.534;-5.674;2022-07-18T04:10:21;27.25;;;19.58;;
72437;SDS011;60444;43.534;-5.674;2022-07-18T04:12:47;30.40;;;19.87;;
72437;SDS011;60444;43.534;-5.674;2022-07-18T04:15:14;27.63;;;18.50;;
72437;SDS011;60444;43.534;-5.674;2022-07-18T04:17:41;27.40;;;19.35;;
72437;SDS011;60444;43.534;-5.674;2022-07-18T04:20:09;29.03;;;19.77;;
72437;SDS011;60444;43.534;-5.674;2022-07-18T04:22:58;26.73;;;19.58;;
72437;SDS011;60444;43.534;-5.674;2022-07-18T04:25:26;28.80;;;20.25;;
72437;SDS011;60444;43.534;-5.674;2022-07-18T04:27:53;28.58;;;20.33;;
72437;SDS011;60444;43.534;-5.674;2022-07-18T04:30:20;28.48;;;19.55;;
72437;SDS011;60444;43.534;-5.674;2022-07-18T04:32:48;30.77;;;21.63;;
72437;SDS011;60444;43.534;-5.674;2022-07-18T04:35:14;27.95;;;20.77;;
72437;SDS011;60444;43.534;-5.674;2022-07-18T04:37:40;29.25;;;20.80;;
72437;SDS011;60444;43.534;-5.674;2022-07-18T04:40:07;29.42;;;20.60;;
72437;SDS011;60444;43.534;-5.674;2022-07-18T04:42:34;28.20;;;20.13;;
72437;SDS011;60444;43.534;-5.674;2022-07-18T04:45:03;28.27;;;20.73;;
72437;SDS011;60444;43.534;-5.674;2022-07-18T04:47:33;27.77;;;19.40;;
72437;SDS011;60444;43.534;-5.674;2022-07-18T04:49:58;28.53;;;20.43;;
72437;SDS011;60444;43.534;-5.674;2022-07-18T04:52:24;26.77;;;19.57;;
72437;SDS011;60444;43.534;-5.674;2022-07-18T04:54:49;30.90;;;21.52;;
72437;SDS011;60444;43.534;-5.674;2022-07-18T04:57:15;28.75;;;20.58;;
72437;SDS011;60444;43.534;-5.674;2022-07-18T04:59:41;29.83;;;21.93;;
72437;SDS011;60444;43.534;-5.674;2022-07-18T05:02:08;28.13;;;21.08;;
72437;SDS011;60444;43.534;-5.674;2022-07-18T05:04:34;30.45;;;22.25;;
72437;SDS011;60444;43.534;-5.674;2022-07-18T05:07:00;30.52;;;20.48;;
72437;SDS011;60444;43.534;-5.674;2022-07-18T05:09:26;31.23;;;22.50;;
72437;SDS011;60444;43.534;-5.674;2022-07-18T05:11:52;33.65;;;22.02;;
72437;SDS011;60444;43.534;-5.674;2022-07-18T05:14:17;29.50;;;20.83;;
72437;SDS011;60444;43.534;-5.674;2022-07-18T05:16:43;31.80;;;22.53;;
72437;SDS011;60444;43.534;-5.674;2022-07-18T05:19:11;31.60;;;22.70;;
72437;SDS011;60444;43.534;-5.674;2022-07-18T05:21:37;31.50;;;21.90;;
72437;SDS011;60444;43.534;-5.674;2022-07-18T05:24:02;27.30;;;20.65;;
72437;SDS011;60444;43.534;-5.674;2022-07-18T05:26:29;29.67;;;21.13;;
72437;SDS011;60444;43.534;-5.674;2022-07-18T05:29:00;27.90;;;20.88;;
72437;SDS011;60444;43.534;-5.674;2022-07-18T05:31:26;30.98;;;21.75;;
72437;SDS011;60444;43.534;-5.674;2022-07-18T05:33:52;30.57;;;22.13;;
72437;SDS011;60444;43.534;-5.674;2022-07-18T05:36:17;29.83;;;22.17;;
72437;SDS011;60444;43.534;-5.674;2022-07-18T05:38:43;31.33;;;22.43;;
72437;SDS011;60444;43.534;-5.674;2022-07-18T05:41:09;32.70;;;22.48;;
72437;SDS011;60444;43.534;-5.674;2022-07-18T05:43:34;28.87;;;21.40;;
72437;SDS011;60444;43.534;-5.674;2022-07-18T05:46:00;34.40;;;25.50;;
72437;SDS011;60444;43.534;-5.674;2022-07-18T05:48:26;33.33;;;23.73;;
72437;SDS011;60444;43.534;-5.674;2022-07-18T05:50:51;33.13;;;22.63;;
72437;SDS011;60444;43.534;-5.674;2022-07-18T05:53:17;35.77;;;23.73;;
72437;SDS011;60444;43.534;-5.674;2022-07-18T05:55:43;33.63;;;23.65;;
72437;SDS011;60444;43.534;-5.674;2022-07-18T05:58:08;38.57;;;23.87;;
72437;SDS011;60444;43.534;-5.674;2022-07-18T06:00:36;35.70;;;20.63;;
72437;SDS011;60444;43.534;-5.674;2022-07-18T06:03:02;30.88;;;20.08;;
72437;SDS011;60444;43.534;-5.674;2022-07-18T06:05:27;29.50;;;19.17;;
72437;SDS011;60444;43.534;-5.674;2022-07-18T06:07:54;29.43;;;17.80;;
72437;SDS011;60444;43.534;-5.674;2022-07-18T06:10:20;24.75;;;15.73;;
72437;SDS011;60444;43.534;-5.674;2022-07-18T06:12:47;28.88;;;17.13;;
72437;SDS011;60444;43.534;-5.674;2022-07-18T06:15:15;24.38;;;15.13;;
72437;SDS011;60444;43.534;-5.674;2022-07-18T06:17:41;26.42;;;16.60;;
72437;SDS011;60444;43.534;-5.674;2022-07-18T06:20:07;22.33;;;15.53;;
72437;SDS011;60444;43.534;-5.674;2022-07-18T06:22:33;27.45;;;15.52;;
72437;SDS011;60444;43.534;-5.674;2022-07-18T06:24:59;26.40;;;15.90;;
72437;SDS011;60444;43.534;-5.674;2022-07-18T06:27:33;22.67;;;15.25;;
72437;SDS011;60444;43.534;-5.674;2022-07-18T06:30:00;27.58;;;16.48;;
72437;SDS011;60444;43.534;-5.674;2022-07-18T06:32:29;25.93;;;17.17;;
72437;SDS011;60444;43.534;-5.674;2022-07-18T06:34:55;27.88;;;17.55;;
72437;SDS011;60444;43.534;-5.674;2022-07-18T06:37:20;27.77;;;17.02;;
72437;SDS011;60444;43.534;-5.674;2022-07-18T06:39:46;30.13;;;17.63;;
72437;SDS011;60444;43.534;-5.674;2022-07-18T06:42:12;32.88;;;20.77;;
72437;SDS011;60444;43.534;-5.674;2022-07-18T06:44:37;27.33;;;17.43;;
72437;SDS011;60444;43.534;-5.674;2022-07-18T06:47:03;34.97;;;21.57;;
72437;SDS011;60444;43.534;-5.674;2022-07-18T06:49:28;29.17;;;19.33;;
72437;SDS011;60444;43.534;-5.674;2022-07-18T06:51:54;32.73;;;19.77;;
72437;SDS011;60444;43.534;-5.674;2022-07-18T06:54:22;37.70;;;22.20;;
72437;SDS011;60444;43.534;-5.674;2022-07-18T06:56:56;32.25;;;19.70;;
72437;SDS011;60444;43.534;-5.674;2022-07-18T06:59:25;35.50;;;21.05;;
72437;SDS011;60444;43.534;-5.674;2022-07-18T07:01:50;30.47;;;19.50;;
72437;SDS011;60444;43.534;-5.674;2022-07-18T07:04:16;31.20;;;19.38;;
72437;SDS011;60444;43.534;-5.674;2022-07-18T07:06:42;32.37;;;19.20;;
72437;SDS011;60444;43.534;-5.674;2022-07-18T07:09:07;31.73;;;18.58;;
72437;SDS011;60444;43.534;-5.674;2022-07-18T07:11:33;28.60;;;17.80;;
72437;SDS011;60444;43.534;-5.674;2022-07-18T07:13:58;28.50;;;17.27;;
72437;SDS011;60444;43.534;-5.674;2022-07-18T07:16:24;29.52;;;17.98;;
72437;SDS011;60444;43.534;-5.674;2022-07-18T07:18:49;32.40;;;17.77;;
72437;SDS011;60444;43.534;-5.674;2022-07-18T07:21:15;34.00;;;19.33;;
72437;SDS011;60444;43.534;-5.674;2022-07-18T07:23:41;29.20;;;18.03;;
72437;SDS011;60444;43.534;-5.674;2022-07-18T07:26:07;26.97;;;17.20;;
72437;SDS011;60444;43.534;-5.674;2022-07-18T07:28:33;27.92;;;17.42;;
72437;SDS011;60444;43.534;-5.674;2022-07-18T07:31:01;48.42;;;25.85;;
72437;SDS011;60444;43.534;-5.674;2022-07-18T07:33:27;54.13;;;30.13;;
72437;SDS011;60444;43.534;-5.674;2022-07-18T07:35:52;30.07;;;19.10;;
72437;SDS011;60444;43.534;-5.674;2022-07-18T07:38:18;28.77;;;20.17;;
72437;SDS011;60444;43.534;-5.674;2022-07-18T07:40:45;36.22;;;21.63;;
72437;SDS011;60444;43.534;-5.674;2022-07-18T07:43:12;36.03;;;20.70;;
72437;SDS011;60444;43.534;-5.674;2022-07-18T07:45:40;34.20;;;20.70;;
72437;SDS011;60444;43.534;-5.674;2022-07-18T07:48:06;30.17;;;19.13;;
72437;SDS011;60444;43.534;-5.674;2022-07-18T07:50:32;34.03;;;19.80;;
72437;SDS011;60444;43.534;-5.674;2022-07-18T07:52:58;33.30;;;20.15;;
72437;SDS011;60444;43.534;-5.674;2022-07-18T07:55:25;30.67;;;19.40;;
72437;SDS011;60444;43.534;-5.674;2022-07-18T07:57:51;33.22;;;19.50;;
72437;SDS011;60444;43.534;-5.674;2022-07-18T08:00:18;31.43;;;19.23;;
72437;SDS011;60444;43.534;-5.674;2022-07-18T08:02:53;29.38;;;18.70;;
72437;SDS011;60444;43.534;-5.674;2022-07-18T08:05:20;34.03;;;20.38;;
72437;SDS011;60444;43.534;-5.674;2022-07-18T08:07:47;34.92;;;22.83;;
72437;SDS011;60444;43.534;-5.674;2022-07-18T08:10:12;31.97;;;19.17;;
72437;SDS011;60444;43.534;-5.674;2022-07-18T08:12:38;45.38;;;28.40;;
72437;SDS011;60444;43.534;-5.674;2022-07-18T08:15:04;40.67;;;23.23;;
72437;SDS011;60444;43.534;-5.674;2022-07-18T08:17:30;34.15;;;20.55;;
72437;SDS011;60444;43.534;-5.674;2022-07-18T08:19:56;30.50;;;19.08;;
72437;SDS011;60444;43.534;-5.674;2022-07-18T08:22:22;31.57;;;18.53;;
72437;SDS011;60444;43.534;-5.674;2022-07-18T08:24:47;28.90;;;18.75;;
72437;SDS011;60444;43.534;-5.674;2022-07-18T08:27:13;31.33;;;20.47;;
72437;SDS011;60444;43.534;-5.674;2022-07-18T08:29:39;28.88;;;18.45;;
72437;SDS011;60444;43.534;-5.674;2022-07-18T08:32:07;30.70;;;19.33;;
72437;SDS011;60444;43.534;-5.674;2022-07-18T08:34:33;31.00;;;18.23;;
72437;SDS011;60444;43.534;-5.674;2022-07-18T08:36:59;30.70;;;19.67;;
72437;SDS011;60444;43.534;-5.674;2022-07-18T08:39:24;31.00;;;19.00;;
72437;SDS011;60444;43.534;-5.674;2022-07-18T08:41:50;32.42;;;19.73;;
72437;SDS011;60444;43.534;-5.674;2022-07-18T08:44:17;35.35;;;20.77;;
72437;SDS011;60444;43.534;-5.674;2022-07-18T08:46:50;31.27;;;20.13;;
72437;SDS011;60444;43.534;-5.674;2022-07-18T08:49:16;34.58;;;21.85;;
72437;SDS011;60444;43.534;-5.674;2022-07-18T08:51:43;35.08;;;22.48;;
72437;SDS011;60444;43.534;-5.674;2022-07-18T08:54:14;38.05;;;23.95;;
72437;SDS011;60444;43.534;-5.674;2022-07-18T08:56:41;36.33;;;23.55;;
72437;SDS011;60444;43.534;-5.674;2022-07-18T08:59:07;36.53;;;23.57;;
72437;SDS011;60444;43.534;-5.674;2022-07-18T09:01:35;41.72;;;24.90;;
72437;SDS011;60444;43.534;-5.674;2022-07-18T09:04:01;38.97;;;25.70;;
72437;SDS011;60444;43.534;-5.674;2022-07-18T09:06:49;47.38;;;25.55;;
72437;SDS011;60444;43.534;-5.674;2022-07-18T09:09:17;36.97;;;22.73;;
72437;SDS011;60444;43.534;-5.674;2022-07-18T09:12:00;33.60;;;21.35;;
72437;SDS011;60444;43.534;-5.674;2022-07-18T09:14:44;35.35;;;22.50;;
72437;SDS011;60444;43.534;-5.674;2022-07-18T09:17:11;34.50;;;22.20;;
72437;SDS011;60444;43.534;-5.674;2022-07-18T09:22:35;30.13;;;20.25;;
72437;SDS011;60444;43.534;-5.674;2022-07-18T09:25:09;33.50;;;20.80;;
72437;SDS011;60444;43.534;-5.674;2022-07-18T09:30:16;34.27;;;20.97;;
72437;SDS011;60444;43.534;-5.674;2022-07-18T09:32:49;30.77;;;19.02;;
72437;SDS011;60444;43.534;-5.674;2022-07-18T09:35:24;30.20;;;20.15;;
72437;SDS011;60444;43.534;-5.674;2022-07-18T09:38:11;31.92;;;19.42;;
72437;SDS011;60444;43.534;-5.674;2022-07-18T09:40:39;30.02;;;18.33;;
72437;SDS011;60444;43.534;-5.674;2022-07-18T09:43:10;27.30;;;17.87;;
72437;SDS011;60444;43.534;-5.674;2022-07-18T09:45:38;29.25;;;16.50;;
72437;SDS011;60444;43.534;-5.674;2022-07-18T09:48:07;25.88;;;18.00;;
72437;SDS011;60444;43.534;-5.674;2022-07-18T09:50:41;29.63;;;17.50;;
72437;SDS011;60444;43.534;-5.674;2022-07-18T09:53:15;29.60;;;19.02;;
72437;SDS011;60444;43.534;-5.674;2022-07-18T09:55:45;26.63;;;18.27;;
72437;SDS011;60444;43.534;-5.674;2022-07-18T09:58:22;28.73;;;16.73;;
72437;SDS011;60444;43.534;-5.674;2022-07-18T10:00:49;27.27;;;16.08;;
72437;SDS011;60444;43.534;-5.674;2022-07-18T10:03:16;27.55;;;16.48;;
72437;SDS011;60444;43.534;-5.674;2022-07-18T10:05:44;28.15;;;16.48;;
72437;SDS011;60444;43.534;-5.674;2022-07-18T10:08:12;24.57;;;15.63;;
72437;SDS011;60444;43.534;-5.674;2022-07-18T10:10:43;24.10;;;16.88;;
72437;SDS011;60444;43.534;-5.674;2022-07-18T10:13:12;28.58;;;16.70;;
72437;SDS011;60444;43.534;-5.674;2022-07-18T10:15:40;27.60;;;15.95;;
72437;SDS011;60444;43.534;-5.674;2022-07-18T10:18:08;25.10;;;15.20;;
72437;SDS011;60444;43.534;-5.674;2022-07-18T10:20:36;24.07;;;14.13;;
72437;SDS011;60444;43.534;-5.674;2022-07-18T10:23:15;21.45;;;14.40;;
72437;SDS011;60444;43.534;-5.674;2022-07-18T10:25:43;27.33;;;15.63;;
72437;SDS011;60444;43.534;-5.674;2022-07-18T10:28:11;25.20;;;16.60;;
72437;SDS011;60444;43.534;-5.674;2022-07-18T10:41:28;23.95;;;14.60;;
72437;SDS011;60444;43.534;-5.674;2022-07-18T10:43:54;23.08;;;15.02;;
72437;SDS011;60444;43.534;-5.674;2022-07-18T10:46:19;20.07;;;13.83;;
72437;SDS011;60444;43.534;-5.674;2022-07-18T10:48:49;22.10;;;14.20;;
72437;SDS011;60444;43.534;-5.674;2022-07-18T10:51:17;21.75;;;12.68;;
72437;SDS011;60444;43.534;-5.674;2022-07-18T10:58:56;21.58;;;13.27;;
72437;SDS011;60444;43.534;-5.674;2022-07-18T11:01:23;20.70;;;13.27;;
72437;SDS011;60444;43.534;-5.674;2022-07-18T11:03:50;22.25;;;13.90;;
72437;SDS011;60444;43.534;-5.674;2022-07-18T11:09:31;24.75;;;14.88;;
72437;SDS011;60444;43.534;-5.674;2022-07-18T11:12:58;22.92;;;14.95;;
72437;SDS011;60444;43.534;-5.674;2022-07-18T11:14:58;22.10;;;14.67;;
72437;SDS011;60444;43.534;-5.674;2022-07-18T11:20:33;28.42;;;17.10;;
72437;SDS011;60444;43.534;-5.674;2022-07-18T11:23:01;20.90;;;13.40;;
72437;SDS011;60444;43.534;-5.674;2022-07-18T11:25:29;23.65;;;14.38;;
72437;SDS011;60444;43.534;-5.674;2022-07-18T11:27:55;22.13;;;13.37;;
72437;SDS011;60444;43.534;-5.674;2022-07-18T11:30:22;23.85;;;13.80;;
72437;SDS011;60444;43.534;-5.674;2022-07-18T11:32:49;24.55;;;14.68;;
72437;SDS011;60444;43.534;-5.674;2022-07-18T11:35:16;22.63;;;13.13;;
72437;SDS011;60444;43.534;-5.674;2022-07-18T11:37:48;23.80;;;14.95;;
72437;SDS011;60444;43.534;-5.674;2022-07-18T11:40:15;20.43;;;13.40;;
72437;SDS011;60444;43.534;-5.674;2022-07-18T11:42:41;22.38;;;14.43;;
72437;SDS011;60444;43.534;-5.674;2022-07-18T11:45:09;20.10;;;13.27;;
72437;SDS011;60444;43.534;-5.674;2022-07-18T11:47:49;20.25;;;12.73;;
72437;SDS011;60444;43.534;-5.674;2022-07-18T11:50:18;20.42;;;13.55;;
72437;SDS011;60444;43.534;-5.674;2022-07-18T11:53:01;23.23;;;15.07;;
72437;SDS011;60444;43.534;-5.674;2022-07-18T11:55:34;18.17;;;13.55;;
72437;SDS011;60444;43.534;-5.674;2022-07-18T11:58:11;20.35;;;13.45;;
72437;SDS011;60444;43.534;-5.674;2022-07-18T12:00:39;22.13;;;14.07;;
72437;SDS011;60444;43.534;-5.674;2022-07-18T12:03:10;21.07;;;12.50;;
72437;SDS011;60444;43.534;-5.674;2022-07-18T12:05:47;19.75;;;11.40;;
72437;SDS011;60444;43.534;-5.674;2022-07-18T12:08:27;19.10;;;12.02;;
72437;SDS011;60444;43.534;-5.674;2022-07-18T12:11:06;19.02;;;12.10;;
72437;SDS011;60444;43.534;-5.674;2022-07-18T12:13:43;16.60;;;11.55;;
72437;SDS011;60444;43.534;-5.674;2022-07-18T12:19:10;18.75;;;11.25;;
72437;SDS011;60444;43.534;-5.674;2022-07-18T12:27:25;16.02;;;10.10;;
72437;SDS011;60444;43.534;-5.674;2022-07-18T12:32:50;14.75;;;9.48;;
72437;SDS011;60444;43.534;-5.674;2022-07-18T12:38:04;16.20;;;9.10;;
72437;SDS011;60444;43.534;-5.674;2022-07-18T12:43:14;16.30;;;10.63;;
72437;SDS011;60444;43.534;-5.674;2022-07-18T12:45:42;16.38;;;10.05;;
72437;SDS011;60444;43.534;-5.674;2022-07-18T12:48:10;15.30;;;9.80;;
72437;SDS011;60444;43.534;-5.674;2022-07-18T12:50:37;15.13;;;9.85;;
72437;SDS011;60444;43.534;-5.674;2022-07-18T12:53:04;15.70;;;10.23;;
72437;SDS011;60444;43.534;-5.674;2022-07-18T12:55:30;18.03;;;10.00;;
72437;SDS011;60444;43.534;-5.674;2022-07-18T12:57:56;14.18;;;9.95;;
72437;SDS011;60444;43.534;-5.674;2022-07-18T13:00:21;15.77;;;10.23;;
72437;SDS011;60444;43.534;-5.674;2022-07-18T13:02:47;16.90;;;9.00;;
72437;SDS011;60444;43.534;-5.674;2022-07-18T13:05:21;16.80;;;8.57;;
72437;SDS011;60444;43.534;-5.674;2022-07-18T13:07:47;16.08;;;8.90;;
72437;SDS011;60444;43.534;-5.674;2022-07-18T13:10:13;14.10;;;7.37;;
72437;SDS011;60444;43.534;-5.674;2022-07-18T13:12:38;14.47;;;7.40;;
72437;SDS011;60444;43.534;-5.674;2022-07-18T13:15:04;13.15;;;7.15;;
72437;SDS011;60444;43.534;-5.674;2022-07-18T13:17:30;13.05;;;6.57;;
72437;SDS011;60444;43.534;-5.674;2022-07-18T13:19:56;12.33;;;7.00;;
72437;SDS011;60444;43.534;-5.674;2022-07-18T13:22:21;14.07;;;7.83;;
72437;SDS011;60444;43.534;-5.674;2022-07-18T13:24:47;14.50;;;7.93;;
72437;SDS011;60444;43.534;-5.674;2022-07-18T13:27:13;10.77;;;7.53;;
72437;SDS011;60444;43.534;-5.674;2022-07-18T13:29:38;13.97;;;7.83;;
72437;SDS011;60444;43.534;-5.674;2022-07-18T13:32:04;16.38;;;8.77;;
72437;SDS011;60444;43.534;-5.674;2022-07-18T13:34:30;13.60;;;8.60;;
72437;SDS011;60444;43.534;-5.674;2022-07-18T13:36:55;15.20;;;9.15;;
72437;SDS011;60444;43.534;-5.674;2022-07-18T13:39:21;15.90;;;8.73;;
72437;SDS011;60444;43.534;-5.674;2022-07-18T13:41:47;15.73;;;8.63;;
72437;SDS011;60444;43.534;-5.674;2022-07-18T13:44:13;14.52;;;8.93;;
72437;SDS011;60444;43.534;-5.674;2022-07-18T13:46:42;16.27;;;9.33;;
72437;SDS011;60444;43.534;-5.674;2022-07-18T13:49:08;18.48;;;9.60;;
72437;SDS011;60444;43.534;-5.674;2022-07-18T13:51:35;17.02;;;9.57;;
72437;SDS011;60444;43.534;-5.674;2022-07-18T13:54:02;14.07;;;8.60;;
72437;SDS011;60444;43.534;-5.674;2022-07-18T13:56:29;15.77;;;8.52;;
72437;SDS011;60444;43.534;-5.674;2022-07-18T13:58:55;20.20;;;9.33;;
72437;SDS011;60444;43.534;-5.674;2022-07-18T14:01:20;16.90;;;9.00;;
72437;SDS011;60444;43.534;-5.674;2022-07-18T14:03:46;13.93;;;7.73;;
72437;SDS011;60444;43.534;-5.674;2022-07-18T14:06:11;19.73;;;8.85;;
72437;SDS011;60444;43.534;-5.674;2022-07-18T14:08:37;16.20;;;8.53;;
72437;SDS011;60444;43.534;-5.674;2022-07-18T14:11:03;14.03;;;8.40;;
72437;SDS011;60444;43.534;-5.674;2022-07-18T14:13:34;16.10;;;8.23;;
72437;SDS011;60444;43.534;-5.674;2022-07-18T14:16:00;14.18;;;8.00;;
72437;SDS011;60444;43.534;-5.674;2022-07-18T14:18:25;16.27;;;8.97;;
72437;SDS011;60444;43.534;-5.674;2022-07-18T14:20:51;16.73;;;8.60;;
72437;SDS011;60444;43.534;-5.674;2022-07-18T14:23:16;13.63;;;7.67;;
72437;SDS011;60444;43.534;-5.674;2022-07-18T14:25:42;16.90;;;7.33;;
72437;SDS011;60444;43.534;-5.674;2022-07-18T14:28:08;17.00;;;7.82;;
72437;SDS011;60444;43.534;-5.674;2022-07-18T14:30:33;17.50;;;7.63;;
72437;SDS011;60444;43.534;-5.674;2022-07-18T14:32:59;16.50;;;8.88;;
72437;SDS011;60444;43.534;-5.674;2022-07-18T14:35:25;18.57;;;8.23;;
72437;SDS011;60444;43.534;-5.674;2022-07-18T14:37:51;13.85;;;7.70;;
72437;SDS011;60444;43.534;-5.674;2022-07-18T14:40:16;15.17;;;6.87;;
72437;SDS011;60444;43.534;-5.674;2022-07-18T14:42:42;12.13;;;7.10;;
72437;SDS011;60444;43.534;-5.674;2022-07-18T14:45:08;13.57;;;7.23;;
72437;SDS011;60444;43.534;-5.674;2022-07-18T14:47:34;13.15;;;6.88;;
72437;SDS011;60444;43.534;-5.674;2022-07-18T14:50:01;14.48;;;6.75;;
72437;SDS011;60444;43.534;-5.674;2022-07-18T14:52:30;13.13;;;6.50;;
72437;SDS011;60444;43.534;-5.674;2022-07-18T14:54:56;15.70;;;6.10;;
72437;SDS011;60444;43.534;-5.674;2022-07-18T14:57:24;13.60;;;7.00;;